Aérodrome :
LOGIN :

S'inscrire | Disclaimer

   EN    FR    IT 

 










Légende :    VFR   VFR Marginal   IFR   IFR Intensif   IFR Très Intensif
Visi : 
Plafond : 
>= 8 km
>= 3000ft
5 à 8 km
1000 à 3000 ft
1500m à 5 km
500 à 1000 ft
800 à 1500m
200 à 500 ft
< 800m
< 200 ft
Symboles :   Orages  Brouillard  Fortes neiges  Fortes précipitations  Vent > 20 kt
SIGMETs :   Divers  Orages  Givrage  Turbulence  Onde Orograph.  Cendres Volcan.






- Altitude de l'aérodrome : 1455 ft


ETIH - Hohenfels Army Air Field

DERNIER METAR :
  • 172336Z AUTO 00000KT 3200 BR BKN030 01/00 A3016 RMK AO2 SLP238 $

METARs EXPIRÉS :
  • 172326Z AUTO 00000KT 3600 BR FEW019 BKN029 BKN049 01/00 A3016 RMK AO2 CIG 029V049 SLP238 $
  • 172301Z AUTO 00000KT 2200 BR FEW031 SCT048 BKN070 01/00 A3016 RMK AO2 VIS 2200V4000 SLP238 $
  • 172256Z AUTO 00000KT 3600 BR FEW031 BKN065 01/00 A3015 RMK AO2 VIS 2600V4000 RAB26E35 SLP234 P0000 T00081001 400121036 $
  • 172250Z AUTO 00000KT 3600 BR FEW021 FEW031 BKN070 01/00 A3016 RMK AO2 VIS 1600V3600 RAB26E35 SLP240 $
  • 172240Z AUTO 00000KT 1600 BR FEW021 FEW031 SCT055 BKN070 01/00 A3016 RMK AO2 RAB26E35 SLP240 RVRNO $
  • 172227Z AUTO 00000KT 2800 -RA BR SCT021 SCT028 BKN055 01/00 A3015 RMK AO2 VIS 2800V5000 RAB26 SLP236 $
  • 172216Z AUTO 00000KT 4000 BR SCT026 BKN035 OVC055 01/00 A3015 RMK AO2 VIS 2200V4000 SLP236 $
  • 172201Z AUTO 00000KT 2400 BR BKN025 OVC050 01/00 A3015 RMK AO2 CIG 025V050 SLP236 $
  • 172132Z AUTO 00000KT 3600 BR FEW050 SCT070 01/00 A3014 RMK AO2 RAE27 SLP233 $
  • 172127Z AUTO 00000KT 3000 BR FEW045 SCT070 01/00 A3014 RMK AO2 RAE27 SLP233 $
  • 172056Z AUTO 00000KT 2400 -RA BR FEW035 BKN047 01/00 A3014 RMK AO2 VIS 2000V5000 DZB05E08RAB08E36DZB36E37DZB40E45RAB45 SLP233 P0000 60000 T00051004 52008 $
  • 172050Z AUTO 00000KT 2800 -RA BR FEW029 SCT035 BKN047 01/00 A3014 RMK AO2 VIS 2800V8000 DZB05E08RAB08E36DZB36E37DZB40E45RAB45 SLP233 $

Prévision TAF périmée.



MET'MAP, la Météo Aéronautique d'un coup d'oeil ! - Copyright ORBIFLY Décembre 2007 - Disclaimer

ORBIFLY MET'MAP TEAM :

Programmation & Développement : Alexandra Zaïnal
Sur une idée originale de : Baudouin d'Aumeries
Assistance à la programmation : Marc-Olivier Méhu
Soutien technique & logistique : Manuel Goepfert

Contact : metmap@orbifly.com




SOURCES & CREDITS :

   NOAA